Whittemore, Iowa
Current Conditions -  °F | °C
As of 9:15 PM on Monday 20 Oct 2014 (Local Time) from KAXA Reporting Station
Clear Clear  
Wind Chill: 12°   Ceiling: Unl
Heat Index: 12°   Visibility: 10mi
Dew Point:   Wind: 3mph
Humidity: 58%   Direction: 340°NNW
Pressure: 30.04"   Gusts: NA
Location:  43.06°N, 94.43°W
Report Text: KAXA 210215Z AUTO 34003KT 10SM CLR 12/04 A3004 RMK AO2
Loading
Personal Weather Stations






























Interactive Weather Map
Tropical Storm Tracking
New forecast layout! Learn more

10-Day Weather Forecast

Advertisements
Track Severe Weather on mobile